sensor_id;sensor_type;location;lat;lon;timestamp;P1;durP1;ratioP1;P2;durP2;ratioP2
70829;SDS011;58451;51.550;7.208;2022-07-10T00:01:26;4.70;;;0.40;;
70829;SDS011;58451;51.550;7.208;2022-07-10T00:03:53;1.80;;;0.30;;
70829;SDS011;58451;51.550;7.208;2022-07-10T00:06:21;3.80;;;0.50;;
70829;SDS011;58451;51.550;7.208;2022-07-10T00:08:48;4.50;;;0.50;;
70829;SDS011;58451;51.550;7.208;2022-07-10T00:11:15;3.70;;;0.50;;
70829;SDS011;58451;51.550;7.208;2022-07-10T00:13:41;2.90;;;0.40;;
70829;SDS011;58451;51.550;7.208;2022-07-10T00:16:08;4.20;;;0.40;;
70829;SDS011;58451;51.550;7.208;2022-07-10T00:18:35;3.40;;;0.40;;
70829;SDS011;58451;51.550;7.208;2022-07-10T00:21:03;3.50;;;0.50;;
70829;SDS011;58451;51.550;7.208;2022-07-10T00:23:29;3.60;;;0.40;;
70829;SDS011;58451;51.550;7.208;2022-07-10T00:25:56;4.10;;;0.60;;
70829;SDS011;58451;51.550;7.208;2022-07-10T00:28:23;5.40;;;0.30;;
70829;SDS011;58451;51.550;7.208;2022-07-10T00:30:51;2.30;;;0.60;;
70829;SDS011;58451;51.550;7.208;2022-07-10T00:33:18;3.90;;;0.40;;
70829;SDS011;58451;51.550;7.208;2022-07-10T00:35:44;5.60;;;0.60;;
70829;SDS011;58451;51.550;7.208;2022-07-10T00:38:11;3.50;;;0.50;;
70829;SDS011;58451;51.550;7.208;2022-07-10T00:40:38;3.40;;;0.40;;
70829;SDS011;58451;51.550;7.208;2022-07-10T00:43:08;2.70;;;0.60;;
70829;SDS011;58451;51.550;7.208;2022-07-10T00:45:36;2.50;;;0.30;;
70829;SDS011;58451;51.550;7.208;2022-07-10T00:48:03;1.90;;;0.20;;
70829;SDS011;58451;51.550;7.208;2022-07-10T00:50:31;3.30;;;0.50;;
70829;SDS011;58451;51.550;7.208;2022-07-10T00:53:00;4.60;;;0.30;;
70829;SDS011;58451;51.550;7.208;2022-07-10T00:55:30;4.80;;;0.40;;
70829;SDS011;58451;51.550;7.208;2022-07-10T00:57:59;5.20;;;0.30;;
70829;SDS011;58451;51.550;7.208;2022-07-10T01:00:28;3.40;;;0.40;;
70829;SDS011;58451;51.550;7.208;2022-07-10T01:02:55;4.80;;;0.60;;
70829;SDS011;58451;51.550;7.208;2022-07-10T01:05:22;3.20;;;1.00;;
70829;SDS011;58451;51.550;7.208;2022-07-10T01:07:49;3.20;;;0.40;;
70829;SDS011;58451;51.550;7.208;2022-07-10T01:10:16;3.50;;;0.60;;
70829;SDS011;58451;51.550;7.208;2022-07-10T01:12:44;5.80;;;0.40;;
70829;SDS011;58451;51.550;7.208;2022-07-10T01:15:12;5.10;;;0.40;;
70829;SDS011;58451;51.550;7.208;2022-07-10T01:17:39;4.90;;;0.40;;
70829;SDS011;58451;51.550;7.208;2022-07-10T01:20:07;4.70;;;0.70;;
70829;SDS011;58451;51.550;7.208;2022-07-10T01:22:36;5.80;;;0.70;;
70829;SDS011;58451;51.550;7.208;2022-07-10T01:25:05;5.40;;;0.70;;
70829;SDS011;58451;51.550;7.208;2022-07-10T01:27:32;2.90;;;0.30;;
70829;SDS011;58451;51.550;7.208;2022-07-10T01:29:59;6.30;;;0.40;;
70829;SDS011;58451;51.550;7.208;2022-07-10T01:32:26;4.50;;;0.50;;
70829;SDS011;58451;51.550;7.208;2022-07-10T01:35:02;5.80;;;1.00;;
70829;SDS011;58451;51.550;7.208;2022-07-10T01:37:29;4.80;;;0.60;;
70829;SDS011;58451;51.550;7.208;2022-07-10T01:39:56;3.60;;;0.70;;
70829;SDS011;58451;51.550;7.208;2022-07-10T01:42:23;3.60;;;0.50;;
70829;SDS011;58451;51.550;7.208;2022-07-10T01:44:50;4.70;;;0.70;;
70829;SDS011;58451;51.550;7.208;2022-07-10T01:47:17;5.30;;;0.50;;
70829;SDS011;58451;51.550;7.208;2022-07-10T01:49:43;4.10;;;0.50;;
70829;SDS011;58451;51.550;7.208;2022-07-10T01:52:10;4.50;;;0.50;;
70829;SDS011;58451;51.550;7.208;2022-07-10T01:54:38;4.30;;;0.40;;
70829;SDS011;58451;51.550;7.208;2022-07-10T01:57:05;6.20;;;0.90;;
70829;SDS011;58451;51.550;7.208;2022-07-10T01:59:32;5.40;;;0.60;;
70829;SDS011;58451;51.550;7.208;2022-07-10T02:01:59;5.70;;;0.50;;
70829;SDS011;58451;51.550;7.208;2022-07-10T02:04:26;2.90;;;0.40;;
70829;SDS011;58451;51.550;7.208;2022-07-10T02:07:09;4.60;;;0.40;;
70829;SDS011;58451;51.550;7.208;2022-07-10T02:09:44;3.00;;;0.50;;
70829;SDS011;58451;51.550;7.208;2022-07-10T02:12:14;4.90;;;0.50;;
70829;SDS011;58451;51.550;7.208;2022-07-10T02:14:42;3.80;;;0.90;;
70829;SDS011;58451;51.550;7.208;2022-07-10T02:17:09;3.90;;;0.70;;
70829;SDS011;58451;51.550;7.208;2022-07-10T02:19:38;3.90;;;0.50;;
70829;SDS011;58451;51.550;7.208;2022-07-10T02:22:04;3.90;;;0.50;;
70829;SDS011;58451;51.550;7.208;2022-07-10T02:24:31;5.90;;;0.40;;
70829;SDS011;58451;51.550;7.208;2022-07-10T02:26:58;3.90;;;0.30;;
70829;SDS011;58451;51.550;7.208;2022-07-10T02:29:25;5.20;;;0.60;;
70829;SDS011;58451;51.550;7.208;2022-07-10T02:31:52;6.70;;;0.50;;
70829;SDS011;58451;51.550;7.208;2022-07-10T02:34:19;5.70;;;0.60;;
70829;SDS011;58451;51.550;7.208;2022-07-10T02:36:46;6.40;;;0.70;;
70829;SDS011;58451;51.550;7.208;2022-07-10T02:39:12;2.80;;;0.50;;
70829;SDS011;58451;51.550;7.208;2022-07-10T02:41:39;6.50;;;0.40;;
70829;SDS011;58451;51.550;7.208;2022-07-10T02:44:07;3.70;;;0.40;;
70829;SDS011;58451;51.550;7.208;2022-07-10T02:46:34;2.60;;;0.40;;
70829;SDS011;58451;51.550;7.208;2022-07-10T02:49:01;4.10;;;0.40;;
70829;SDS011;58451;51.550;7.208;2022-07-10T02:51:28;5.90;;;0.50;;
70829;SDS011;58451;51.550;7.208;2022-07-10T02:53:56;4.50;;;0.40;;
70829;SDS011;58451;51.550;7.208;2022-07-10T02:56:22;2.80;;;0.50;;
70829;SDS011;58451;51.550;7.208;2022-07-10T02:58:49;3.50;;;0.50;;
70829;SDS011;58451;51.550;7.208;2022-07-10T03:01:16;3.70;;;0.60;;
70829;SDS011;58451;51.550;7.208;2022-07-10T03:03:43;5.00;;;0.50;;
70829;SDS011;58451;51.550;7.208;2022-07-10T03:06:10;8.10;;;0.70;;
70829;SDS011;58451;51.550;7.208;2022-07-10T03:08:36;3.10;;;0.40;;
70829;SDS011;58451;51.550;7.208;2022-07-10T03:11:04;5.60;;;0.60;;
70829;SDS011;58451;51.550;7.208;2022-07-10T03:13:30;4.60;;;0.60;;
70829;SDS011;58451;51.550;7.208;2022-07-10T03:15:57;4.40;;;0.50;;
70829;SDS011;58451;51.550;7.208;2022-07-10T03:18:24;3.90;;;0.60;;
70829;SDS011;58451;51.550;7.208;2022-07-10T03:20:51;6.50;;;0.70;;
70829;SDS011;58451;51.550;7.208;2022-07-10T03:23:18;3.90;;;0.40;;
70829;SDS011;58451;51.550;7.208;2022-07-10T03:25:46;4.60;;;0.50;;
70829;SDS011;58451;51.550;7.208;2022-07-10T03:28:14;5.80;;;0.80;;
70829;SDS011;58451;51.550;7.208;2022-07-10T03:30:40;4.30;;;0.60;;
70829;SDS011;58451;51.550;7.208;2022-07-10T03:33:07;5.90;;;0.50;;
70829;SDS011;58451;51.550;7.208;2022-07-10T03:35:34;6.00;;;0.50;;
70829;SDS011;58451;51.550;7.208;2022-07-10T03:38:01;2.80;;;0.40;;
70829;SDS011;58451;51.550;7.208;2022-07-10T03:40:29;5.50;;;0.50;;
70829;SDS011;58451;51.550;7.208;2022-07-10T03:42:56;5.60;;;0.50;;
70829;SDS011;58451;51.550;7.208;2022-07-10T03:45:24;6.50;;;0.80;;
70829;SDS011;58451;51.550;7.208;2022-07-10T03:47:50;8.10;;;0.70;;
70829;SDS011;58451;51.550;7.208;2022-07-10T03:50:17;5.50;;;0.60;;
70829;SDS011;58451;51.550;7.208;2022-07-10T03:52:44;3.90;;;0.40;;
70829;SDS011;58451;51.550;7.208;2022-07-10T03:55:12;6.60;;;0.60;;
70829;SDS011;58451;51.550;7.208;2022-07-10T03:57:39;4.50;;;0.70;;
70829;SDS011;58451;51.550;7.208;2022-07-10T04:00:24;4.10;;;0.60;;
70829;SDS011;58451;51.550;7.208;2022-07-10T04:02:54;6.50;;;0.70;;
70829;SDS011;58451;51.550;7.208;2022-07-10T04:05:29;5.90;;;0.60;;
70829;SDS011;58451;51.550;7.208;2022-07-10T04:07:58;6.10;;;0.80;;
70829;SDS011;58451;51.550;7.208;2022-07-10T04:10:27;4.30;;;0.50;;
70829;SDS011;58451;51.550;7.208;2022-07-10T04:12:55;4.80;;;0.40;;
70829;SDS011;58451;51.550;7.208;2022-07-10T04:15:23;3.90;;;0.50;;
70829;SDS011;58451;51.550;7.208;2022-07-10T04:17:51;4.80;;;0.30;;
70829;SDS011;58451;51.550;7.208;2022-07-10T04:20:19;9.30;;;0.70;;
70829;SDS011;58451;51.550;7.208;2022-07-10T04:22:47;4.00;;;0.50;;
70829;SDS011;58451;51.550;7.208;2022-07-10T04:25:14;4.70;;;0.50;;
70829;SDS011;58451;51.550;7.208;2022-07-10T04:27:41;4.50;;;0.50;;
70829;SDS011;58451;51.550;7.208;2022-07-10T04:30:08;4.80;;;0.70;;
70829;SDS011;58451;51.550;7.208;2022-07-10T04:32:35;3.70;;;0.50;;
70829;SDS011;58451;51.550;7.208;2022-07-10T04:35:04;4.60;;;0.60;;
70829;SDS011;58451;51.550;7.208;2022-07-10T04:37:31;2.80;;;0.40;;
70829;SDS011;58451;51.550;7.208;2022-07-10T04:39:58;7.60;;;0.60;;
70829;SDS011;58451;51.550;7.208;2022-07-10T04:42:25;4.40;;;0.40;;
70829;SDS011;58451;51.550;7.208;2022-07-10T04:44:53;3.80;;;0.50;;
70829;SDS011;58451;51.550;7.208;2022-07-10T04:47:20;5.00;;;0.70;;
70829;SDS011;58451;51.550;7.208;2022-07-10T04:49:46;3.00;;;0.50;;
70829;SDS011;58451;51.550;7.208;2022-07-10T04:52:13;5.20;;;0.50;;
70829;SDS011;58451;51.550;7.208;2022-07-10T04:54:40;4.50;;;0.50;;
70829;SDS011;58451;51.550;7.208;2022-07-10T04:57:07;4.90;;;0.40;;
70829;SDS011;58451;51.550;7.208;2022-07-10T04:59:33;4.50;;;0.50;;
70829;SDS011;58451;51.550;7.208;2022-07-10T05:02:00;5.30;;;0.50;;
70829;SDS011;58451;51.550;7.208;2022-07-10T05:04:27;4.00;;;0.40;;
70829;SDS011;58451;51.550;7.208;2022-07-10T05:06:54;3.00;;;0.60;;
70829;SDS011;58451;51.550;7.208;2022-07-10T05:09:20;3.30;;;0.40;;
70829;SDS011;58451;51.550;7.208;2022-07-10T05:11:47;5.50;;;0.60;;
70829;SDS011;58451;51.550;7.208;2022-07-10T05:14:14;3.40;;;0.50;;
70829;SDS011;58451;51.550;7.208;2022-07-10T05:16:42;8.40;;;0.70;;
70829;SDS011;58451;51.550;7.208;2022-07-10T05:19:09;7.00;;;0.50;;
70829;SDS011;58451;51.550;7.208;2022-07-10T05:21:36;5.30;;;0.60;;
70829;SDS011;58451;51.550;7.208;2022-07-10T05:24:03;8.00;;;0.50;;
70829;SDS011;58451;51.550;7.208;2022-07-10T05:26:30;4.30;;;0.40;;
70829;SDS011;58451;51.550;7.208;2022-07-10T05:28:57;4.90;;;0.60;;
70829;SDS011;58451;51.550;7.208;2022-07-10T05:31:24;5.60;;;0.50;;
70829;SDS011;58451;51.550;7.208;2022-07-10T05:33:51;6.00;;;0.70;;
70829;SDS011;58451;51.550;7.208;2022-07-10T05:36:18;2.90;;;0.40;;
70829;SDS011;58451;51.550;7.208;2022-07-10T05:38:44;4.50;;;0.40;;
70829;SDS011;58451;51.550;7.208;2022-07-10T05:41:11;4.50;;;0.60;;
70829;SDS011;58451;51.550;7.208;2022-07-10T05:43:38;3.90;;;0.40;;
70829;SDS011;58451;51.550;7.208;2022-07-10T05:46:05;6.40;;;0.50;;
70829;SDS011;58451;51.550;7.208;2022-07-10T05:48:32;5.60;;;0.50;;
70829;SDS011;58451;51.550;7.208;2022-07-10T05:50:59;7.00;;;0.80;;
70829;SDS011;58451;51.550;7.208;2022-07-10T05:53:46;6.40;;;0.50;;
70829;SDS011;58451;51.550;7.208;2022-07-10T05:56:13;9.80;;;0.60;;
70829;SDS011;58451;51.550;7.208;2022-07-10T05:58:40;4.50;;;0.50;;
70829;SDS011;58451;51.550;7.208;2022-07-10T06:01:08;9.00;;;0.80;;
70829;SDS011;58451;51.550;7.208;2022-07-10T06:03:35;6.80;;;0.60;;
70829;SDS011;58451;51.550;7.208;2022-07-10T06:06:02;7.80;;;0.70;;
70829;SDS011;58451;51.550;7.208;2022-07-10T06:08:29;5.40;;;0.40;;
70829;SDS011;58451;51.550;7.208;2022-07-10T06:10:56;5.30;;;0.60;;
70829;SDS011;58451;51.550;7.208;2022-07-10T06:13:22;4.70;;;0.40;;
70829;SDS011;58451;51.550;7.208;2022-07-10T06:15:52;6.00;;;0.80;;
70829;SDS011;58451;51.550;7.208;2022-07-10T06:18:19;7.80;;;0.70;;
70829;SDS011;58451;51.550;7.208;2022-07-10T06:20:46;3.40;;;0.40;;
70829;SDS011;58451;51.550;7.208;2022-07-10T06:23:12;8.90;;;0.60;;
70829;SDS011;58451;51.550;7.208;2022-07-10T06:25:39;4.30;;;0.50;;
70829;SDS011;58451;51.550;7.208;2022-07-10T06:28:06;5.30;;;0.70;;
70829;SDS011;58451;51.550;7.208;2022-07-10T06:30:33;5.10;;;0.60;;
70829;SDS011;58451;51.550;7.208;2022-07-10T06:33:00;4.60;;;0.30;;
70829;SDS011;58451;51.550;7.208;2022-07-10T06:35:27;4.30;;;0.50;;
70829;SDS011;58451;51.550;7.208;2022-07-10T06:37:53;4.50;;;0.40;;
70829;SDS011;58451;51.550;7.208;2022-07-10T06:40:20;5.80;;;0.30;;
70829;SDS011;58451;51.550;7.208;2022-07-10T06:42:48;3.20;;;0.50;;
70829;SDS011;58451;51.550;7.208;2022-07-10T06:45:18;4.50;;;0.50;;
70829;SDS011;58451;51.550;7.208;2022-07-10T06:47:44;4.00;;;0.70;;
70829;SDS011;58451;51.550;7.208;2022-07-10T06:50:29;5.70;;;0.60;;
70829;SDS011;58451;51.550;7.208;2022-07-10T06:53:02;3.70;;;0.60;;
70829;SDS011;58451;51.550;7.208;2022-07-10T06:55:30;6.40;;;0.40;;
70829;SDS011;58451;51.550;7.208;2022-07-10T06:57:58;7.90;;;0.60;;
70829;SDS011;58451;51.550;7.208;2022-07-10T07:00:26;5.10;;;0.50;;
70829;SDS011;58451;51.550;7.208;2022-07-10T07:02:53;5.30;;;0.50;;
70829;SDS011;58451;51.550;7.208;2022-07-10T07:05:21;5.90;;;0.70;;
70829;SDS011;58451;51.550;7.208;2022-07-10T07:07:48;5.20;;;0.60;;
70829;SDS011;58451;51.550;7.208;2022-07-10T07:10:15;4.30;;;0.50;;
70829;SDS011;58451;51.550;7.208;2022-07-10T07:12:42;6.50;;;0.50;;
70829;SDS011;58451;51.550;7.208;2022-07-10T07:15:09;3.70;;;0.60;;
70829;SDS011;58451;51.550;7.208;2022-07-10T07:17:40;2.70;;;0.40;;
70829;SDS011;58451;51.550;7.208;2022-07-10T07:20:26;7.10;;;0.80;;
70829;SDS011;58451;51.550;7.208;2022-07-10T07:23:12;3.90;;;0.40;;
70829;SDS011;58451;51.550;7.208;2022-07-10T07:25:40;6.30;;;0.40;;
70829;SDS011;58451;51.550;7.208;2022-07-10T07:28:17;7.50;;;0.80;;
70829;SDS011;58451;51.550;7.208;2022-07-10T07:30:47;4.40;;;0.70;;
70829;SDS011;58451;51.550;7.208;2022-07-10T07:33:14;5.60;;;0.80;;
70829;SDS011;58451;51.550;7.208;2022-07-10T07:35:42;6.90;;;0.60;;
70829;SDS011;58451;51.550;7.208;2022-07-10T07:38:09;5.80;;;0.60;;
70829;SDS011;58451;51.550;7.208;2022-07-10T07:40:36;6.10;;;0.60;;
70829;SDS011;58451;51.550;7.208;2022-07-10T07:43:04;4.30;;;0.50;;
70829;SDS011;58451;51.550;7.208;2022-07-10T07:45:31;2.60;;;0.40;;
70829;SDS011;58451;51.550;7.208;2022-07-10T07:47:59;3.40;;;0.40;;
70829;SDS011;58451;51.550;7.208;2022-07-10T07:50:29;4.50;;;0.50;;
70829;SDS011;58451;51.550;7.208;2022-07-10T07:52:59;4.90;;;0.50;;
70829;SDS011;58451;51.550;7.208;2022-07-10T07:55:28;4.40;;;0.60;;
70829;SDS011;58451;51.550;7.208;2022-07-10T07:57:56;7.20;;;0.80;;
70829;SDS011;58451;51.550;7.208;2022-07-10T08:00:26;6.40;;;0.50;;
70829;SDS011;58451;51.550;7.208;2022-07-10T08:02:55;6.10;;;0.60;;
70829;SDS011;58451;51.550;7.208;2022-07-10T08:05:24;4.60;;;0.50;;
70829;SDS011;58451;51.550;7.208;2022-07-10T08:07:53;5.00;;;0.50;;
70829;SDS011;58451;51.550;7.208;2022-07-10T08:10:25;5.10;;;0.60;;
70829;SDS011;58451;51.550;7.208;2022-07-10T08:12:53;6.30;;;0.50;;
70829;SDS011;58451;51.550;7.208;2022-07-10T08:15:21;4.30;;;0.80;;
70829;SDS011;58451;51.550;7.208;2022-07-10T08:17:53;4.80;;;0.50;;
70829;SDS011;58451;51.550;7.208;2022-07-10T08:20:24;4.00;;;0.50;;
70829;SDS011;58451;51.550;7.208;2022-07-10T08:22:52;2.80;;;0.60;;
70829;SDS011;58451;51.550;7.208;2022-07-10T08:25:29;5.50;;;0.70;;
70829;SDS011;58451;51.550;7.208;2022-07-10T08:28:01;6.90;;;0.40;;
70829;SDS011;58451;51.550;7.208;2022-07-10T08:30:30;7.50;;;0.70;;
70829;SDS011;58451;51.550;7.208;2022-07-10T08:32:57;3.80;;;0.60;;
70829;SDS011;58451;51.550;7.208;2022-07-10T08:35:24;4.00;;;0.60;;
70829;SDS011;58451;51.550;7.208;2022-07-10T08:37:51;3.00;;;0.50;;
70829;SDS011;58451;51.550;7.208;2022-07-10T08:40:21;4.90;;;0.50;;
70829;SDS011;58451;51.550;7.208;2022-07-10T08:42:49;3.50;;;0.70;;
70829;SDS011;58451;51.550;7.208;2022-07-10T08:45:16;4.90;;;0.80;;
70829;SDS011;58451;51.550;7.208;2022-07-10T08:47:43;3.70;;;0.50;;
70829;SDS011;58451;51.550;7.208;2022-07-10T08:50:18;5.00;;;0.90;;
70829;SDS011;58451;51.550;7.208;2022-07-10T08:53:12;4.90;;;1.10;;
70829;SDS011;58451;51.550;7.208;2022-07-10T08:55:43;6.40;;;1.20;;
70829;SDS011;58451;51.550;7.208;2022-07-10T08:58:12;7.30;;;1.60;;
70829;SDS011;58451;51.550;7.208;2022-07-10T09:00:39;5.90;;;1.40;;
70829;SDS011;58451;51.550;7.208;2022-07-10T09:03:07;5.10;;;1.20;;
70829;SDS011;58451;51.550;7.208;2022-07-10T09:05:35;5.50;;;1.00;;
70829;SDS011;58451;51.550;7.208;2022-07-10T09:08:02;6.10;;;1.00;;
70829;SDS011;58451;51.550;7.208;2022-07-10T09:10:30;5.20;;;0.80;;
70829;SDS011;58451;51.550;7.208;2022-07-10T09:13:01;5.30;;;0.90;;
70829;SDS011;58451;51.550;7.208;2022-07-10T09:15:30;6.50;;;0.80;;
70829;SDS011;58451;51.550;7.208;2022-07-10T09:18:03;5.40;;;1.00;;
70829;SDS011;58451;51.550;7.208;2022-07-10T09:25:46;5.50;;;0.80;;
70829;SDS011;58451;51.550;7.208;2022-07-10T09:28:18;4.30;;;0.80;;
70829;SDS011;58451;51.550;7.208;2022-07-10T09:30:47;3.90;;;0.60;;
70829;SDS011;58451;51.550;7.208;2022-07-10T09:33:19;3.00;;;0.60;;
70829;SDS011;58451;51.550;7.208;2022-07-10T09:35:58;2.50;;;0.60;;
70829;SDS011;58451;51.550;7.208;2022-07-10T09:44:05;3.70;;;0.50;;
70829;SDS011;58451;51.550;7.208;2022-07-10T09:46:38;4.90;;;0.70;;
70829;SDS011;58451;51.550;7.208;2022-07-10T09:49:09;2.60;;;0.50;;
70829;SDS011;58451;51.550;7.208;2022-07-10T09:51:42;2.70;;;0.70;;
70829;SDS011;58451;51.550;7.208;2022-07-10T09:54:15;2.90;;;0.50;;
70829;SDS011;58451;51.550;7.208;2022-07-10T09:56:45;1.90;;;0.60;;
70829;SDS011;58451;51.550;7.208;2022-07-10T09:59:16;5.00;;;0.70;;
70829;SDS011;58451;51.550;7.208;2022-07-10T10:01:50;1.90;;;0.60;;
70829;SDS011;58451;51.550;7.208;2022-07-10T10:04:21;4.10;;;0.60;;
70829;SDS011;58451;51.550;7.208;2022-07-10T10:06:53;7.90;;;0.70;;
70829;SDS011;58451;51.550;7.208;2022-07-10T10:09:51;2.90;;;0.60;;
70829;SDS011;58451;51.550;7.208;2022-07-10T10:12:35;2.20;;;0.70;;
70829;SDS011;58451;51.550;7.208;2022-07-10T10:15:14;2.90;;;0.80;;
70829;SDS011;58451;51.550;7.208;2022-07-10T10:17:44;2.90;;;0.70;;
70829;SDS011;58451;51.550;7.208;2022-07-10T10:20:13;4.50;;;0.70;;
70829;SDS011;58451;51.550;7.208;2022-07-10T10:23:01;3.90;;;0.70;;
70829;SDS011;58451;51.550;7.208;2022-07-10T10:25:32;5.40;;;1.50;;
70829;SDS011;58451;51.550;7.208;2022-07-10T10:28:01;5.90;;;1.90;;
70829;SDS011;58451;51.550;7.208;2022-07-10T10:30:31;5.10;;;2.30;;
70829;SDS011;58451;51.550;7.208;2022-07-10T10:32:59;9.90;;;3.20;;
70829;SDS011;58451;51.550;7.208;2022-07-10T10:35:46;7.50;;;2.40;;
70829;SDS011;58451;51.550;7.208;2022-07-10T10:38:16;9.40;;;2.40;;
70829;SDS011;58451;51.550;7.208;2022-07-10T10:40:43;5.80;;;2.20;;
70829;SDS011;58451;51.550;7.208;2022-07-10T10:43:20;6.20;;;2.20;;
70829;SDS011;58451;51.550;7.208;2022-07-10T10:45:50;6.10;;;2.00;;
70829;SDS011;58451;51.550;7.208;2022-07-10T10:48:20;5.50;;;1.80;;
70829;SDS011;58451;51.550;7.208;2022-07-10T10:51:04;4.70;;;1.60;;
70829;SDS011;58451;51.550;7.208;2022-07-10T10:53:31;5.40;;;1.50;;
70829;SDS011;58451;51.550;7.208;2022-07-10T11:09:32;5.70;;;2.10;;
70829;SDS011;58451;51.550;7.208;2022-07-10T11:12:00;6.40;;;2.40;;
70829;SDS011;58451;51.550;7.208;2022-07-10T11:14:35;4.70;;;2.30;;
70829;SDS011;58451;51.550;7.208;2022-07-10T11:17:05;6.00;;;2.30;;
70829;SDS011;58451;51.550;7.208;2022-07-10T11:19:34;7.60;;;3.50;;
70829;SDS011;58451;51.550;7.208;2022-07-10T11:22:13;5.90;;;2.10;;
70829;SDS011;58451;51.550;7.208;2022-07-10T11:25:08;5.30;;;2.30;;
70829;SDS011;58451;51.550;7.208;2022-07-10T11:28:06;4.50;;;1.70;;
70829;SDS011;58451;51.550;7.208;2022-07-10T11:30:54;5.00;;;2.20;;
70829;SDS011;58451;51.550;7.208;2022-07-10T11:33:22;3.80;;;1.20;;
70829;SDS011;58451;51.550;7.208;2022-07-10T11:35:51;4.50;;;1.60;;
70829;SDS011;58451;51.550;7.208;2022-07-10T11:38:26;5.30;;;1.40;;
70829;SDS011;58451;51.550;7.208;2022-07-10T11:40:53;4.70;;;1.40;;
70829;SDS011;58451;51.550;7.208;2022-07-10T11:43:21;5.00;;;1.30;;
70829;SDS011;58451;51.550;7.208;2022-07-10T11:45:51;3.80;;;1.30;;
70829;SDS011;58451;51.550;7.208;2022-07-10T11:48:21;3.00;;;1.50;;
70829;SDS011;58451;51.550;7.208;2022-07-10T11:50:50;3.60;;;1.20;;
70829;SDS011;58451;51.550;7.208;2022-07-10T11:53:26;2.60;;;1.00;;
70829;SDS011;58451;51.550;7.208;2022-07-10T11:55:54;2.60;;;0.90;;
70829;SDS011;58451;51.550;7.208;2022-07-10T11:58:21;3.00;;;1.20;;
70829;SDS011;58451;51.550;7.208;2022-07-10T12:01:00;2.90;;;1.10;;
70829;SDS011;58451;51.550;7.208;2022-07-10T12:03:31;2.10;;;0.70;;
70829;SDS011;58451;51.550;7.208;2022-07-10T12:06:06;2.50;;;0.80;;
70829;SDS011;58451;51.550;7.208;2022-07-10T12:08:46;1.10;;;0.50;;
70829;SDS011;58451;51.550;7.208;2022-07-10T12:11:14;1.00;;;0.60;;
70829;SDS011;58451;51.550;7.208;2022-07-10T12:13:43;2.10;;;0.70;;
70829;SDS011;58451;51.550;7.208;2022-07-10T12:16:11;1.40;;;0.60;;
70829;SDS011;58451;51.550;7.208;2022-07-10T12:18:41;2.00;;;0.50;;
70829;SDS011;58451;51.550;7.208;2022-07-10T12:21:11;2.70;;;0.80;;
70829;SDS011;58451;51.550;7.208;2022-07-10T12:23:39;2.40;;;0.70;;
70829;SDS011;58451;51.550;7.208;2022-07-10T12:26:10;1.60;;;0.60;;
70829;SDS011;58451;51.550;7.208;2022-07-10T12:28:51;2.20;;;0.80;;
70829;SDS011;58451;51.550;7.208;2022-07-10T12:31:26;2.00;;;0.80;;
70829;SDS011;58451;51.550;7.208;2022-07-10T12:33:58;1.60;;;0.70;;
70829;SDS011;58451;51.550;7.208;2022-07-10T12:36:46;2.70;;;0.90;;
70829;SDS011;58451;51.550;7.208;2022-07-10T12:39:21;2.10;;;0.90;;
70829;SDS011;58451;51.550;7.208;2022-07-10T12:47:09;3.20;;;1.00;;
70829;SDS011;58451;51.550;7.208;2022-07-10T12:52:34;4.20;;;1.40;;
70829;SDS011;58451;51.550;7.208;2022-07-10T13:00:18;3.40;;;1.40;;
70829;SDS011;58451;51.550;7.208;2022-07-10T13:02:48;3.00;;;0.80;;
70829;SDS011;58451;51.550;7.208;2022-07-10T13:05:36;1.70;;;0.70;;
70829;SDS011;58451;51.550;7.208;2022-07-10T13:08:19;4.00;;;1.40;;
70829;SDS011;58451;51.550;7.208;2022-07-10T13:10:53;2.70;;;1.10;;
70829;SDS011;58451;51.550;7.208;2022-07-10T13:13:22;2.90;;;1.00;;
70829;SDS011;58451;51.550;7.208;2022-07-10T13:15:49;1.70;;;0.70;;
70829;SDS011;58451;51.550;7.208;2022-07-10T13:18:19;2.10;;;1.00;;
70829;SDS011;58451;51.550;7.208;2022-07-10T13:20:49;7.60;;;3.70;;
70829;SDS011;58451;51.550;7.208;2022-07-10T13:23:25;2.70;;;1.20;;
70829;SDS011;58451;51.550;7.208;2022-07-10T13:25:52;1.80;;;1.10;;
70829;SDS011;58451;51.550;7.208;2022-07-10T13:28:20;6.00;;;2.10;;
70829;SDS011;58451;51.550;7.208;2022-07-10T13:30:47;3.40;;;1.10;;
70829;SDS011;58451;51.550;7.208;2022-07-10T13:33:14;2.60;;;0.90;;
70829;SDS011;58451;51.550;7.208;2022-07-10T13:35:41;3.60;;;1.00;;
70829;SDS011;58451;51.550;7.208;2022-07-10T13:38:08;5.40;;;1.10;;
70829;SDS011;58451;51.550;7.208;2022-07-10T13:40:42;4.00;;;1.50;;
70829;SDS011;58451;51.550;7.208;2022-07-10T13:43:11;3.30;;;0.90;;
70829;SDS011;58451;51.550;7.208;2022-07-10T13:45:40;3.10;;;1.00;;
70829;SDS011;58451;51.550;7.208;2022-07-10T13:48:11;2.50;;;1.30;;
70829;SDS011;58451;51.550;7.208;2022-07-10T13:50:40;3.10;;;1.40;;
70829;SDS011;58451;51.550;7.208;2022-07-10T13:53:08;2.70;;;1.30;;
70829;SDS011;58451;51.550;7.208;2022-07-10T13:55:36;3.40;;;1.70;;
70829;SDS011;58451;51.550;7.208;2022-07-10T13:58:04;3.20;;;1.30;;
70829;SDS011;58451;51.550;7.208;2022-07-10T14:00:31;2.70;;;1.20;;
70829;SDS011;58451;51.550;7.208;2022-07-10T14:02:58;3.60;;;1.60;;
70829;SDS011;58451;51.550;7.208;2022-07-10T14:05:27;2.80;;;1.40;;
70829;SDS011;58451;51.550;7.208;2022-07-10T14:07:55;2.30;;;1.20;;
70829;SDS011;58451;51.550;7.208;2022-07-10T14:10:22;4.10;;;1.90;;
70829;SDS011;58451;51.550;7.208;2022-07-10T14:12:48;5.60;;;1.20;;
70829;SDS011;58451;51.550;7.208;2022-07-10T14:15:16;3.40;;;1.20;;
70829;SDS011;58451;51.550;7.208;2022-07-10T14:17:44;2.70;;;1.40;;
70829;SDS011;58451;51.550;7.208;2022-07-10T14:20:11;2.20;;;0.90;;
70829;SDS011;58451;51.550;7.208;2022-07-10T14:22:38;4.50;;;2.10;;
70829;SDS011;58451;51.550;7.208;2022-07-10T14:25:06;3.30;;;1.60;;
70829;SDS011;58451;51.550;7.208;2022-07-10T14:27:36;2.50;;;1.00;;
70829;SDS011;58451;51.550;7.208;2022-07-10T14:30:04;3.00;;;1.00;;
70829;SDS011;58451;51.550;7.208;2022-07-10T14:32:32;3.20;;;0.90;;
70829;SDS011;58451;51.550;7.208;2022-07-10T14:34:59;3.10;;;0.70;;
70829;SDS011;58451;51.550;7.208;2022-07-10T14:37:25;3.40;;;0.90;;
70829;SDS011;58451;51.550;7.208;2022-07-10T14:39:52;3.70;;;1.20;;
70829;SDS011;58451;51.550;7.208;2022-07-10T14:42:19;2.20;;;0.80;;
70829;SDS011;58451;51.550;7.208;2022-07-10T14:44:46;5.70;;;0.90;;
70829;SDS011;58451;51.550;7.208;2022-07-10T14:47:13;2.20;;;0.90;;
70829;SDS011;58451;51.550;7.208;2022-07-10T14:49:41;4.70;;;0.90;;
70829;SDS011;58451;51.550;7.208;2022-07-10T14:52:08;2.20;;;0.80;;
70829;SDS011;58451;51.550;7.208;2022-07-10T14:54:35;4.70;;;1.00;;
70829;SDS011;58451;51.550;7.208;2022-07-10T14:57:02;3.80;;;0.90;;
70829;SDS011;58451;51.550;7.208;2022-07-10T14:59:30;4.60;;;1.00;;
70829;SDS011;58451;51.550;7.208;2022-07-10T15:01:56;2.80;;;1.00;;
70829;SDS011;58451;51.550;7.208;2022-07-10T15:04:24;3.30;;;0.90;;
70829;SDS011;58451;51.550;7.208;2022-07-10T15:06:51;2.80;;;0.90;;
70829;SDS011;58451;51.550;7.208;2022-07-10T15:09:18;4.00;;;1.00;;
70829;SDS011;58451;51.550;7.208;2022-07-10T15:11:44;2.70;;;0.90;;
70829;SDS011;58451;51.550;7.208;2022-07-10T15:14:12;2.40;;;0.90;;
70829;SDS011;58451;51.550;7.208;2022-07-10T15:16:39;2.90;;;1.00;;
70829;SDS011;58451;51.550;7.208;2022-07-10T15:19:06;2.90;;;1.00;;
70829;SDS011;58451;51.550;7.208;2022-07-10T15:21:35;2.20;;;0.80;;
70829;SDS011;58451;51.550;7.208;2022-07-10T15:24:02;2.90;;;1.00;;
70829;SDS011;58451;51.550;7.208;2022-07-10T15:26:29;3.10;;;0.80;;
70829;SDS011;58451;51.550;7.208;2022-07-10T15:28:56;2.00;;;0.80;;
70829;SDS011;58451;51.550;7.208;2022-07-10T15:31:25;3.00;;;0.70;;
70829;SDS011;58451;51.550;7.208;2022-07-10T15:33:53;2.50;;;0.80;;
70829;SDS011;58451;51.550;7.208;2022-07-10T15:36:20;3.30;;;1.00;;
70829;SDS011;58451;51.550;7.208;2022-07-10T15:38:48;2.90;;;0.90;;